Terminal Aerodrome Forecast
Issued by NWS Paducah, KY

Home | Current Version | Previous Version | Graphics & Text | Print | Product List | Glossary On
Versions: 1 2 3 4 5 6 7 8 9 10 11 12 13 14 15
000
FTUS43 KPAH 151100
TAFEVV
TAF
KEVV 151120Z 1512/1612 13002KT P6SM BKN050
     FM151600 19004KT P6SM BKN050
     FM160300 34005KT P6SM SCT008 OVC012=

USA.gov is the U.S. government's official web portal to all federal, state and local government web resources and services.